sensor_id;sensor_type;location;lat;lon;timestamp;temperature;humidity
3752;DHT22;50827;47.014;7.652;2023-06-22T00:01:13;21.60;99.90
3752;DHT22;50827;47.014;7.652;2023-06-22T00:03:40;21.60;99.90
3752;DHT22;50827;47.014;7.652;2023-06-22T00:06:07;21.60;99.90
3752;DHT22;50827;47.014;7.652;2023-06-22T00:08:34;21.60;99.90
3752;DHT22;50827;47.014;7.652;2023-06-22T00:11:01;21.50;99.90
3752;DHT22;50827;47.014;7.652;2023-06-22T00:13:27;21.50;99.90
3752;DHT22;50827;47.014;7.652;2023-06-22T00:15:54;21.60;99.90
3752;DHT22;50827;47.014;7.652;2023-06-22T00:18:20;21.60;99.90
3752;DHT22;50827;47.014;7.652;2023-06-22T00:20:47;21.60;99.90
3752;DHT22;50827;47.014;7.652;2023-06-22T00:23:14;21.50;99.90
3752;DHT22;50827;47.014;7.652;2023-06-22T00:25:43;21.50;99.90
3752;DHT22;50827;47.014;7.652;2023-06-22T00:28:10;21.70;99.90
3752;DHT22;50827;47.014;7.652;2023-06-22T00:30:37;21.60;99.90
3752;DHT22;50827;47.014;7.652;2023-06-22T00:33:03;21.50;99.90
3752;DHT22;50827;47.014;7.652;2023-06-22T00:35:30;21.50;99.90
3752;DHT22;50827;47.014;7.652;2023-06-22T00:37:58;21.40;99.90
3752;DHT22;50827;47.014;7.652;2023-06-22T00:40:28;21.40;99.90
3752;DHT22;50827;47.014;7.652;2023-06-22T00:42:55;21.40;99.90
3752;DHT22;50827;47.014;7.652;2023-06-22T00:45:26;21.30;99.90
3752;DHT22;50827;47.014;7.652;2023-06-22T00:47:54;21.30;99.90
3752;DHT22;50827;47.014;7.652;2023-06-22T00:50:24;21.30;99.90
3752;DHT22;50827;47.014;7.652;2023-06-22T00:52:53;21.30;99.90
3752;DHT22;50827;47.014;7.652;2023-06-22T00:55:21;21.30;99.90
3752;DHT22;50827;47.014;7.652;2023-06-22T00:57:48;21.30;99.90
3752;DHT22;50827;47.014;7.652;2023-06-22T01:00:16;21.30;99.90
3752;DHT22;50827;47.014;7.652;2023-06-22T01:02:47;21.30;99.90
3752;DHT22;50827;47.014;7.652;2023-06-22T01:05:18;21.30;99.90
3752;DHT22;50827;47.014;7.652;2023-06-22T01:11:13;21.30;99.90
3752;DHT22;50827;47.014;7.652;2023-06-22T01:13:59;21.30;99.90
3752;DHT22;50827;47.014;7.652;2023-06-22T01:16:37;21.20;99.90
3752;DHT22;50827;47.014;7.652;2023-06-22T01:19:24;21.20;99.90
3752;DHT22;50827;47.014;7.652;2023-06-22T01:21:55;21.20;99.90
3752;DHT22;50827;47.014;7.652;2023-06-22T01:24:57;21.20;99.90
3752;DHT22;50827;47.014;7.652;2023-06-22T01:27:34;21.10;99.90
3752;DHT22;50827;47.014;7.652;2023-06-22T01:30:04;21.10;99.90
3752;DHT22;50827;47.014;7.652;2023-06-22T01:32:34;21.10;99.90
3752;DHT22;50827;47.014;7.652;2023-06-22T01:35:04;21.00;99.90
3752;DHT22;50827;47.014;7.652;2023-06-22T01:37:33;20.90;99.90
3752;DHT22;50827;47.014;7.652;2023-06-22T01:40:01;20.90;99.90
3752;DHT22;50827;47.014;7.652;2023-06-22T01:42:28;20.90;99.90
3752;DHT22;50827;47.014;7.652;2023-06-22T01:44:55;20.90;99.90
3752;DHT22;50827;47.014;7.652;2023-06-22T01:47:24;20.90;99.90
3752;DHT22;50827;47.014;7.652;2023-06-22T01:49:51;20.90;99.90
3752;DHT22;50827;47.014;7.652;2023-06-22T01:52:18;20.90;99.90
3752;DHT22;50827;47.014;7.652;2023-06-22T01:54:47;20.90;99.90
3752;DHT22;50827;47.014;7.652;2023-06-22T01:57:14;20.80;99.90
3752;DHT22;50827;47.014;7.652;2023-06-22T02:00:12;20.80;99.90
3752;DHT22;50827;47.014;7.652;2023-06-22T02:02:52;20.80;99.90
3752;DHT22;50827;47.014;7.652;2023-06-22T02:05:21;20.70;99.90
3752;DHT22;50827;47.014;7.652;2023-06-22T02:08:00;20.80;99.90
3752;DHT22;50827;47.014;7.652;2023-06-22T02:10:29;20.80;99.90
3752;DHT22;50827;47.014;7.652;2023-06-22T02:12:59;20.80;99.90
3752;DHT22;50827;47.014;7.652;2023-06-22T02:15:26;20.70;99.90
3752;DHT22;50827;47.014;7.652;2023-06-22T02:17:53;20.60;99.90
3752;DHT22;50827;47.014;7.652;2023-06-22T02:20:20;20.60;99.90
3752;DHT22;50827;47.014;7.652;2023-06-22T02:22:47;20.50;99.90
3752;DHT22;50827;47.014;7.652;2023-06-22T02:25:14;20.40;99.90
3752;DHT22;50827;47.014;7.652;2023-06-22T02:27:41;20.30;99.90
3752;DHT22;50827;47.014;7.652;2023-06-22T02:30:08;20.30;99.90
3752;DHT22;50827;47.014;7.652;2023-06-22T02:32:38;20.30;99.90
3752;DHT22;50827;47.014;7.652;2023-06-22T02:35:09;20.30;99.90
3752;DHT22;50827;47.014;7.652;2023-06-22T02:37:36;20.30;99.90
3752;DHT22;50827;47.014;7.652;2023-06-22T02:40:06;20.20;99.90
3752;DHT22;50827;47.014;7.652;2023-06-22T02:42:36;20.10;99.90
3752;DHT22;50827;47.014;7.652;2023-06-22T02:45:03;20.10;99.90
3752;DHT22;50827;47.014;7.652;2023-06-22T02:47:29;20.00;99.90
3752;DHT22;50827;47.014;7.652;2023-06-22T02:49:56;20.00;99.90
3752;DHT22;50827;47.014;7.652;2023-06-22T02:52:23;19.90;99.90
3752;DHT22;50827;47.014;7.652;2023-06-22T02:54:50;19.80;99.90
3752;DHT22;50827;47.014;7.652;2023-06-22T02:57:16;19.80;99.90
3752;DHT22;50827;47.014;7.652;2023-06-22T02:59:43;19.80;99.90
3752;DHT22;50827;47.014;7.652;2023-06-22T03:02:10;19.80;99.90
3752;DHT22;50827;47.014;7.652;2023-06-22T03:04:37;19.80;99.90
3752;DHT22;50827;47.014;7.652;2023-06-22T03:07:04;19.80;99.90
3752;DHT22;50827;47.014;7.652;2023-06-22T03:09:33;19.80;99.90
3752;DHT22;50827;47.014;7.652;2023-06-22T03:11:59;19.80;99.90
3752;DHT22;50827;47.014;7.652;2023-06-22T03:14:26;19.80;99.90
3752;DHT22;50827;47.014;7.652;2023-06-22T03:16:53;19.80;99.90
3752;DHT22;50827;47.014;7.652;2023-06-22T03:19:20;19.80;99.90
3752;DHT22;50827;47.014;7.652;2023-06-22T03:21:48;19.80;99.90
3752;DHT22;50827;47.014;7.652;2023-06-22T03:24:15;19.80;99.90
3752;DHT22;50827;47.014;7.652;2023-06-22T03:26:41;19.90;99.90
3752;DHT22;50827;47.014;7.652;2023-06-22T03:29:08;19.90;99.90
3752;DHT22;50827;47.014;7.652;2023-06-22T03:31:34;19.90;99.90
3752;DHT22;50827;47.014;7.652;2023-06-22T03:34:01;19.80;99.90
3752;DHT22;50827;47.014;7.652;2023-06-22T03:36:28;19.80;99.90
3752;DHT22;50827;47.014;7.652;2023-06-22T03:38:55;19.70;99.90
3752;DHT22;50827;47.014;7.652;2023-06-22T03:41:22;19.70;99.90
3752;DHT22;50827;47.014;7.652;2023-06-22T03:43:48;19.60;99.90
3752;DHT22;50827;47.014;7.652;2023-06-22T03:46:15;19.50;99.90
3752;DHT22;50827;47.014;7.652;2023-06-22T03:48:42;19.40;99.90
3752;DHT22;50827;47.014;7.652;2023-06-22T03:51:09;19.30;99.90
3752;DHT22;50827;47.014;7.652;2023-06-22T03:53:36;19.30;99.90
3752;DHT22;50827;47.014;7.652;2023-06-22T03:56:02;19.20;99.90
3752;DHT22;50827;47.014;7.652;2023-06-22T03:58:29;19.10;99.90
3752;DHT22;50827;47.014;7.652;2023-06-22T04:00:59;19.10;99.90
3752;DHT22;50827;47.014;7.652;2023-06-22T04:03:28;19.10;99.90
3752;DHT22;50827;47.014;7.652;2023-06-22T04:05:55;19.10;99.90
3752;DHT22;50827;47.014;7.652;2023-06-22T04:08:22;19.10;99.90
3752;DHT22;50827;47.014;7.652;2023-06-22T04:10:48;19.20;99.90
3752;DHT22;50827;47.014;7.652;2023-06-22T04:13:16;19.10;99.90
3752;DHT22;50827;47.014;7.652;2023-06-22T04:15:42;19.20;99.90
3752;DHT22;50827;47.014;7.652;2023-06-22T04:18:09;19.20;99.90
3752;DHT22;50827;47.014;7.652;2023-06-22T04:20:36;19.30;99.90
3752;DHT22;50827;47.014;7.652;2023-06-22T04:23:03;19.30;99.90
3752;DHT22;50827;47.014;7.652;2023-06-22T04:25:30;19.20;99.90
3752;DHT22;50827;47.014;7.652;2023-06-22T04:27:56;19.20;99.90
3752;DHT22;50827;47.014;7.652;2023-06-22T04:30:23;19.20;99.90
3752;DHT22;50827;47.014;7.652;2023-06-22T04:32:50;19.20;99.90
3752;DHT22;50827;47.014;7.652;2023-06-22T04:35:24;19.30;99.90
3752;DHT22;50827;47.014;7.652;2023-06-22T04:37:50;19.30;99.90
3752;DHT22;50827;47.014;7.652;2023-06-22T04:40:22;19.40;99.90
3752;DHT22;50827;47.014;7.652;2023-06-22T04:42:49;19.50;99.90
3752;DHT22;50827;47.014;7.652;2023-06-22T04:45:20;19.60;99.90
3752;DHT22;50827;47.014;7.652;2023-06-22T04:47:48;19.60;99.90
3752;DHT22;50827;47.014;7.652;2023-06-22T04:50:15;19.60;99.90
3752;DHT22;50827;47.014;7.652;2023-06-22T04:52:41;19.60;99.90
3752;DHT22;50827;47.014;7.652;2023-06-22T04:55:08;19.60;99.90
3752;DHT22;50827;47.014;7.652;2023-06-22T04:57:35;19.70;99.90
3752;DHT22;50827;47.014;7.652;2023-06-22T05:00:06;19.70;99.90
3752;DHT22;50827;47.014;7.652;2023-06-22T05:02:39;19.60;99.90
3752;DHT22;50827;47.014;7.652;2023-06-22T05:05:06;19.60;99.90
3752;DHT22;50827;47.014;7.652;2023-06-22T05:07:34;19.70;99.90
3752;DHT22;50827;47.014;7.652;2023-06-22T05:10:04;19.70;99.90
3752;DHT22;50827;47.014;7.652;2023-06-22T05:12:31;19.70;99.90
3752;DHT22;50827;47.014;7.652;2023-06-22T05:14:58;19.70;99.90
3752;DHT22;50827;47.014;7.652;2023-06-22T05:17:25;19.80;99.90
3752;DHT22;50827;47.014;7.652;2023-06-22T05:19:52;19.80;99.90
3752;DHT22;50827;47.014;7.652;2023-06-22T05:22:19;19.80;99.90
3752;DHT22;50827;47.014;7.652;2023-06-22T05:24:46;19.80;99.90
3752;DHT22;50827;47.014;7.652;2023-06-22T05:27:13;20.00;99.90
3752;DHT22;50827;47.014;7.652;2023-06-22T05:29:40;20.00;99.90
3752;DHT22;50827;47.014;7.652;2023-06-22T05:32:09;20.10;99.90
3752;DHT22;50827;47.014;7.652;2023-06-22T05:34:35;20.20;99.90
3752;DHT22;50827;47.014;7.652;2023-06-22T05:37:02;20.30;99.90
3752;DHT22;50827;47.014;7.652;2023-06-22T05:39:29;20.30;99.90
3752;DHT22;50827;47.014;7.652;2023-06-22T05:41:56;20.40;99.90
3752;DHT22;50827;47.014;7.652;2023-06-22T05:44:22;20.40;99.90
3752;DHT22;50827;47.014;7.652;2023-06-22T05:46:49;20.50;99.90
3752;DHT22;50827;47.014;7.652;2023-06-22T05:49:16;20.50;99.90
3752;DHT22;50827;47.014;7.652;2023-06-22T05:51:43;20.60;99.90
3752;DHT22;50827;47.014;7.652;2023-06-22T05:54:10;20.60;99.90
3752;DHT22;50827;47.014;7.652;2023-06-22T05:56:36;20.70;99.90
3752;DHT22;50827;47.014;7.652;2023-06-22T05:59:04;20.80;99.90
3752;DHT22;50827;47.014;7.652;2023-06-22T06:01:30;20.90;99.90
3752;DHT22;50827;47.014;7.652;2023-06-22T06:04:02;21.00;99.90
3752;DHT22;50827;47.014;7.652;2023-06-22T06:06:30;21.10;99.90
3752;DHT22;50827;47.014;7.652;2023-06-22T06:08:57;21.10;99.90
3752;DHT22;50827;47.014;7.652;2023-06-22T06:11:23;21.20;99.90
3752;DHT22;50827;47.014;7.652;2023-06-22T06:13:51;21.20;99.90
3752;DHT22;50827;47.014;7.652;2023-06-22T06:16:17;21.30;99.90
3752;DHT22;50827;47.014;7.652;2023-06-22T06:18:44;21.40;99.90
3752;DHT22;50827;47.014;7.652;2023-06-22T06:21:11;21.40;99.90
3752;DHT22;50827;47.014;7.652;2023-06-22T06:23:38;21.20;99.90
3752;DHT22;50827;47.014;7.652;2023-06-22T06:26:04;21.30;99.90
3752;DHT22;50827;47.014;7.652;2023-06-22T06:28:34;21.30;99.90
3752;DHT22;50827;47.014;7.652;2023-06-22T06:31:01;21.30;99.90
3752;DHT22;50827;47.014;7.652;2023-06-22T06:33:28;21.30;99.90
3752;DHT22;50827;47.014;7.652;2023-06-22T06:35:54;21.40;99.90
3752;DHT22;50827;47.014;7.652;2023-06-22T06:38:22;21.40;99.90
3752;DHT22;50827;47.014;7.652;2023-06-22T06:40:49;21.50;99.90
3752;DHT22;50827;47.014;7.652;2023-06-22T06:43:15;21.50;99.90
3752;DHT22;50827;47.014;7.652;2023-06-22T06:45:42;21.70;99.90
3752;DHT22;50827;47.014;7.652;2023-06-22T06:48:09;21.70;99.90
3752;DHT22;50827;47.014;7.652;2023-06-22T06:50:36;21.80;99.90
3752;DHT22;50827;47.014;7.652;2023-06-22T06:53:02;21.90;99.90
3752;DHT22;50827;47.014;7.652;2023-06-22T06:55:29;21.90;99.90
3752;DHT22;50827;47.014;7.652;2023-06-22T06:57:59;21.90;99.90
3752;DHT22;50827;47.014;7.652;2023-06-22T07:00:26;22.10;99.90
3752;DHT22;50827;47.014;7.652;2023-06-22T07:02:53;22.20;99.90
3752;DHT22;50827;47.014;7.652;2023-06-22T07:05:20;22.30;99.90
3752;DHT22;50827;47.014;7.652;2023-06-22T07:07:47;22.30;99.90
3752;DHT22;50827;47.014;7.652;2023-06-22T07:10:14;22.40;99.90
3752;DHT22;50827;47.014;7.652;2023-06-22T07:12:41;22.50;99.90
3752;DHT22;50827;47.014;7.652;2023-06-22T07:15:09;22.50;99.90
3752;DHT22;50827;47.014;7.652;2023-06-22T07:17:37;22.60;99.90
3752;DHT22;50827;47.014;7.652;2023-06-22T07:20:04;22.60;99.90
3752;DHT22;50827;47.014;7.652;2023-06-22T07:22:41;22.60;99.90
3752;DHT22;50827;47.014;7.652;2023-06-22T07:25:09;22.70;99.90
3752;DHT22;50827;47.014;7.652;2023-06-22T07:27:43;22.70;99.90
3752;DHT22;50827;47.014;7.652;2023-06-22T07:30:10;22.80;99.90
3752;DHT22;50827;47.014;7.652;2023-06-22T07:32:37;22.90;99.90
3752;DHT22;50827;47.014;7.652;2023-06-22T07:35:04;22.90;99.90
3752;DHT22;50827;47.014;7.652;2023-06-22T07:37:31;22.90;99.90
3752;DHT22;50827;47.014;7.652;2023-06-22T07:39:59;22.90;99.90
3752;DHT22;50827;47.014;7.652;2023-06-22T07:42:27;22.90;99.90
3752;DHT22;50827;47.014;7.652;2023-06-22T07:44:54;22.90;99.90
3752;DHT22;50827;47.014;7.652;2023-06-22T07:47:21;23.00;99.90
3752;DHT22;50827;47.014;7.652;2023-06-22T07:49:55;23.00;99.90
3752;DHT22;50827;47.014;7.652;2023-06-22T07:52:24;23.10;99.90
3752;DHT22;50827;47.014;7.652;2023-06-22T07:54:54;23.10;99.90
3752;DHT22;50827;47.014;7.652;2023-06-22T07:57:21;23.20;99.90
3752;DHT22;50827;47.014;7.652;2023-06-22T07:59:47;23.30;99.90
3752;DHT22;50827;47.014;7.652;2023-06-22T08:02:14;23.30;99.90
3752;DHT22;50827;47.014;7.652;2023-06-22T08:04:41;23.30;99.90
3752;DHT22;50827;47.014;7.652;2023-06-22T08:07:08;23.40;99.90
3752;DHT22;50827;47.014;7.652;2023-06-22T08:09:34;23.40;99.90
3752;DHT22;50827;47.014;7.652;2023-06-22T08:12:02;23.50;99.90
3752;DHT22;50827;47.014;7.652;2023-06-22T08:14:30;23.50;99.90
3752;DHT22;50827;47.014;7.652;2023-06-22T08:16:56;23.60;99.90
3752;DHT22;50827;47.014;7.652;2023-06-22T08:19:23;23.70;99.90
3752;DHT22;50827;47.014;7.652;2023-06-22T08:21:50;23.70;99.90
3752;DHT22;50827;47.014;7.652;2023-06-22T08:24:16;23.80;99.90
3752;DHT22;50827;47.014;7.652;2023-06-22T08:26:43;23.80;99.90
3752;DHT22;50827;47.014;7.652;2023-06-22T08:29:10;23.90;99.90
3752;DHT22;50827;47.014;7.652;2023-06-22T08:31:37;23.90;99.90
3752;DHT22;50827;47.014;7.652;2023-06-22T08:34:04;24.00;99.90
3752;DHT22;50827;47.014;7.652;2023-06-22T08:36:30;24.00;99.90
3752;DHT22;50827;47.014;7.652;2023-06-22T08:38:59;24.00;99.90
3752;DHT22;50827;47.014;7.652;2023-06-22T08:41:29;24.10;99.90
3752;DHT22;50827;47.014;7.652;2023-06-22T08:43:57;24.10;99.90
3752;DHT22;50827;47.014;7.652;2023-06-22T08:46:24;24.10;99.90
3752;DHT22;50827;47.014;7.652;2023-06-22T08:48:58;24.20;99.90
3752;DHT22;50827;47.014;7.652;2023-06-22T08:51:26;24.20;99.90
3752;DHT22;50827;47.014;7.652;2023-06-22T08:53:53;24.30;99.90
3752;DHT22;50827;47.014;7.652;2023-06-22T08:56:19;24.40;99.90
3752;DHT22;50827;47.014;7.652;2023-06-22T08:58:46;24.50;99.90
3752;DHT22;50827;47.014;7.652;2023-06-22T09:01:13;24.60;99.90
3752;DHT22;50827;47.014;7.652;2023-06-22T09:03:41;24.60;99.90
3752;DHT22;50827;47.014;7.652;2023-06-22T09:06:09;24.60;99.90
3752;DHT22;50827;47.014;7.652;2023-06-22T09:08:36;24.60;99.90
3752;DHT22;50827;47.014;7.652;2023-06-22T09:11:03;24.70;99.90
3752;DHT22;50827;47.014;7.652;2023-06-22T09:13:30;24.70;99.90
3752;DHT22;50827;47.014;7.652;2023-06-22T09:15:58;24.80;99.90
3752;DHT22;50827;47.014;7.652;2023-06-22T09:18:25;24.80;99.90
3752;DHT22;50827;47.014;7.652;2023-06-22T09:20:51;24.80;99.90
3752;DHT22;50827;47.014;7.652;2023-06-22T09:23:18;24.80;99.90
3752;DHT22;50827;47.014;7.652;2023-06-22T09:25:45;24.90;99.90
3752;DHT22;50827;47.014;7.652;2023-06-22T09:28:14;24.90;99.90
3752;DHT22;50827;47.014;7.652;2023-06-22T09:30:43;24.90;99.90
3752;DHT22;50827;47.014;7.652;2023-06-22T09:33:10;25.00;99.90
3752;DHT22;50827;47.014;7.652;2023-06-22T09:35:37;25.00;99.90
3752;DHT22;50827;47.014;7.652;2023-06-22T09:38:06;25.10;99.90
3752;DHT22;50827;47.014;7.652;2023-06-22T09:40:33;25.20;99.90
3752;DHT22;50827;47.014;7.652;2023-06-22T09:43:05;25.20;99.90
3752;DHT22;50827;47.014;7.652;2023-06-22T09:45:32;25.20;99.90
3752;DHT22;50827;47.014;7.652;2023-06-22T09:47:59;25.20;99.90
3752;DHT22;50827;47.014;7.652;2023-06-22T09:50:26;25.20;99.90
3752;DHT22;50827;47.014;7.652;2023-06-22T09:52:53;25.30;99.90
3752;DHT22;50827;47.014;7.652;2023-06-22T09:55:22;25.20;99.90
3752;DHT22;50827;47.014;7.652;2023-06-22T09:57:48;25.20;99.90
3752;DHT22;50827;47.014;7.652;2023-06-22T10:00:16;25.20;99.90
3752;DHT22;50827;47.014;7.652;2023-06-22T10:02:44;25.20;99.90
3752;DHT22;50827;47.014;7.652;2023-06-22T10:05:11;25.20;99.90
3752;DHT22;50827;47.014;7.652;2023-06-22T10:07:39;25.10;99.90
3752;DHT22;50827;47.014;7.652;2023-06-22T10:10:10;25.10;99.90
3752;DHT22;50827;47.014;7.652;2023-06-22T10:12:40;25.20;99.90
3752;DHT22;50827;47.014;7.652;2023-06-22T10:15:07;25.10;99.90
3752;DHT22;50827;47.014;7.652;2023-06-22T10:17:34;25.00;99.90
3752;DHT22;50827;47.014;7.652;2023-06-22T10:20:01;25.00;99.90
3752;DHT22;50827;47.014;7.652;2023-06-22T10:22:33;25.00;99.90
3752;DHT22;50827;47.014;7.652;2023-06-22T10:25:01;25.00;99.90
3752;DHT22;50827;47.014;7.652;2023-06-22T10:27:27;25.00;99.90
3752;DHT22;50827;47.014;7.652;2023-06-22T10:29:54;24.90;99.90
3752;DHT22;50827;47.014;7.652;2023-06-22T10:32:21;24.90;99.90
3752;DHT22;50827;47.014;7.652;2023-06-22T10:34:48;24.80;99.90
3752;DHT22;50827;47.014;7.652;2023-06-22T10:37:14;24.80;99.90
3752;DHT22;50827;47.014;7.652;2023-06-22T10:39:41;24.80;99.90
3752;DHT22;50827;47.014;7.652;2023-06-22T10:42:08;24.80;99.90
3752;DHT22;50827;47.014;7.652;2023-06-22T10:44:35;24.80;99.90
3752;DHT22;50827;47.014;7.652;2023-06-22T10:47:02;24.80;99.90
3752;DHT22;50827;47.014;7.652;2023-06-22T10:49:28;24.80;99.90
3752;DHT22;50827;47.014;7.652;2023-06-22T10:51:55;24.80;99.90
3752;DHT22;50827;47.014;7.652;2023-06-22T10:54:22;24.80;99.90
3752;DHT22;50827;47.014;7.652;2023-06-22T10:56:49;24.80;99.90
3752;DHT22;50827;47.014;7.652;2023-06-22T10:59:16;24.90;99.90
3752;DHT22;50827;47.014;7.652;2023-06-22T11:01:43;24.90;99.90
3752;DHT22;50827;47.014;7.652;2023-06-22T11:04:10;24.90;99.90
3752;DHT22;50827;47.014;7.652;2023-06-22T11:06:37;24.90;99.90
3752;DHT22;50827;47.014;7.652;2023-06-22T11:09:03;24.90;99.90
3752;DHT22;50827;47.014;7.652;2023-06-22T11:11:55;24.90;99.90
3752;DHT22;50827;47.014;7.652;2023-06-22T11:14:22;25.00;99.90
3752;DHT22;50827;47.014;7.652;2023-06-22T11:16:49;25.10;99.90
3752;DHT22;50827;47.014;7.652;2023-06-22T11:19:16;25.10;99.90
3752;DHT22;50827;47.014;7.652;2023-06-22T11:21:43;25.10;99.90
3752;DHT22;50827;47.014;7.652;2023-06-22T11:24:10;25.20;99.90
3752;DHT22;50827;47.014;7.652;2023-06-22T11:26:37;25.30;99.90
3752;DHT22;50827;47.014;7.652;2023-06-22T11:29:03;25.30;99.90
3752;DHT22;50827;47.014;7.652;2023-06-22T11:31:32;25.30;99.90
3752;DHT22;50827;47.014;7.652;2023-06-22T11:34:00;25.40;99.90
3752;DHT22;50827;47.014;7.652;2023-06-22T11:36:26;25.40;99.90
3752;DHT22;50827;47.014;7.652;2023-06-22T11:38:53;25.40;99.90
3752;DHT22;50827;47.014;7.652;2023-06-22T11:41:20;25.30;99.90
3752;DHT22;50827;47.014;7.652;2023-06-22T11:43:47;25.30;99.90
3752;DHT22;50827;47.014;7.652;2023-06-22T11:46:13;25.30;99.90
3752;DHT22;50827;47.014;7.652;2023-06-22T11:48:40;25.30;99.90
3752;DHT22;50827;47.014;7.652;2023-06-22T11:51:07;25.30;99.90
3752;DHT22;50827;47.014;7.652;2023-06-22T11:53:34;25.40;99.90
3752;DHT22;50827;47.014;7.652;2023-06-22T11:56:01;25.20;99.90
3752;DHT22;50827;47.014;7.652;2023-06-22T11:58:28;25.20;99.90
3752;DHT22;50827;47.014;7.652;2023-06-22T12:00:55;25.20;99.90
3752;DHT22;50827;47.014;7.652;2023-06-22T12:03:22;25.10;99.90
3752;DHT22;50827;47.014;7.652;2023-06-22T12:05:50;25.00;99.90
3752;DHT22;50827;47.014;7.652;2023-06-22T12:08:18;25.00;99.90
3752;DHT22;50827;47.014;7.652;2023-06-22T12:10:45;25.00;99.90
3752;DHT22;50827;47.014;7.652;2023-06-22T12:13:12;25.10;99.90
3752;DHT22;50827;47.014;7.652;2023-06-22T12:15:39;25.20;99.90
3752;DHT22;50827;47.014;7.652;2023-06-22T12:18:05;25.30;99.90
3752;DHT22;50827;47.014;7.652;2023-06-22T12:20:32;25.30;99.90
3752;DHT22;50827;47.014;7.652;2023-06-22T12:22:59;25.40;99.90
3752;DHT22;50827;47.014;7.652;2023-06-22T12:25:26;25.50;99.90
3752;DHT22;50827;47.014;7.652;2023-06-22T12:27:52;25.60;99.90
3752;DHT22;50827;47.014;7.652;2023-06-22T12:30:20;25.70;99.90
3752;DHT22;50827;47.014;7.652;2023-06-22T12:32:47;25.70;99.90
3752;DHT22;50827;47.014;7.652;2023-06-22T12:35:13;25.80;99.90
3752;DHT22;50827;47.014;7.652;2023-06-22T12:37:44;25.90;99.90
3752;DHT22;50827;47.014;7.652;2023-06-22T12:40:11;25.90;99.90
3752;DHT22;50827;47.014;7.652;2023-06-22T12:42:38;25.90;99.90
3752;DHT22;50827;47.014;7.652;2023-06-22T12:45:05;25.90;99.90
3752;DHT22;50827;47.014;7.652;2023-06-22T12:47:32;25.90;99.90
3752;DHT22;50827;47.014;7.652;2023-06-22T12:49:59;25.90;99.90
3752;DHT22;50827;47.014;7.652;2023-06-22T12:52:25;25.90;99.90
3752;DHT22;50827;47.014;7.652;2023-06-22T12:54:52;25.80;99.90
3752;DHT22;50827;47.014;7.652;2023-06-22T12:57:21;25.80;99.90
3752;DHT22;50827;47.014;7.652;2023-06-22T12:59:49;25.70;99.90
3752;DHT22;50827;47.014;7.652;2023-06-22T13:02:15;25.70;99.90
3752;DHT22;50827;47.014;7.652;2023-06-22T13:04:43;25.70;99.90
3752;DHT22;50827;47.014;7.652;2023-06-22T13:07:10;25.70;99.90
3752;DHT22;50827;47.014;7.652;2023-06-22T13:09:49;25.60;99.90
3752;DHT22;50827;47.014;7.652;2023-06-22T13:12:20;25.60;99.90
3752;DHT22;50827;47.014;7.652;2023-06-22T13:14:47;25.60;99.90
3752;DHT22;50827;47.014;7.652;2023-06-22T13:17:14;25.60;99.90
3752;DHT22;50827;47.014;7.652;2023-06-22T13:19:41;25.50;99.90
3752;DHT22;50827;47.014;7.652;2023-06-22T13:24:57;25.50;99.90
3752;DHT22;50827;47.014;7.652;2023-06-22T13:27:24;25.50;99.90
3752;DHT22;50827;47.014;7.652;2023-06-22T13:29:52;25.40;99.90
3752;DHT22;50827;47.014;7.652;2023-06-22T13:32:18;25.50;99.90
3752;DHT22;50827;47.014;7.652;2023-06-22T13:34:45;25.50;99.90
3752;DHT22;50827;47.014;7.652;2023-06-22T13:37:12;25.60;99.90
3752;DHT22;50827;47.014;7.652;2023-06-22T13:39:39;25.70;99.90
3752;DHT22;50827;47.014;7.652;2023-06-22T13:42:06;25.80;99.90
3752;DHT22;50827;47.014;7.652;2023-06-22T13:44:32;25.80;99.90
3752;DHT22;50827;47.014;7.652;2023-06-22T13:46:59;25.80;99.90
3752;DHT22;50827;47.014;7.652;2023-06-22T13:49:26;25.80;99.90
3752;DHT22;50827;47.014;7.652;2023-06-22T13:51:52;25.80;99.90
3752;DHT22;50827;47.014;7.652;2023-06-22T13:54:19;25.90;99.90
3752;DHT22;50827;47.014;7.652;2023-06-22T13:56:49;25.90;99.90
3752;DHT22;50827;47.014;7.652;2023-06-22T13:59:15;26.00;99.90
3752;DHT22;50827;47.014;7.652;2023-06-22T14:01:42;25.90;99.90
3752;DHT22;50827;47.014;7.652;2023-06-22T14:04:10;26.00;99.90
3752;DHT22;50827;47.014;7.652;2023-06-22T14:06:38;25.90;99.90
3752;DHT22;50827;47.014;7.652;2023-06-22T14:09:05;26.00;99.90
3752;DHT22;50827;47.014;7.652;2023-06-22T14:11:32;26.00;99.90
3752;DHT22;50827;47.014;7.652;2023-06-22T14:13:58;25.90;99.90
3752;DHT22;50827;47.014;7.652;2023-06-22T14:16:25;25.90;99.90
3752;DHT22;50827;47.014;7.652;2023-06-22T14:18:52;25.90;99.90
3752;DHT22;50827;47.014;7.652;2023-06-22T14:21:23;25.90;99.90
3752;DHT22;50827;47.014;7.652;2023-06-22T14:23:49;25.80;99.90
3752;DHT22;50827;47.014;7.652;2023-06-22T14:26:16;25.70;99.90
3752;DHT22;50827;47.014;7.652;2023-06-22T14:28:47;25.70;99.90
3752;DHT22;50827;47.014;7.652;2023-06-22T14:31:17;25.60;99.90
3752;DHT22;50827;47.014;7.652;2023-06-22T14:33:47;25.60;99.90
3752;DHT22;50827;47.014;7.652;2023-06-22T14:36:17;25.60;99.90
3752;DHT22;50827;47.014;7.652;2023-06-22T14:38:45;25.30;99.90
3752;DHT22;50827;47.014;7.652;2023-06-22T14:41:13;25.20;99.90
3752;DHT22;50827;47.014;7.652;2023-06-22T14:43:50;25.10;99.90
3752;DHT22;50827;47.014;7.652;2023-06-22T14:46:19;24.90;99.90
3752;DHT22;50827;47.014;7.652;2023-06-22T14:48:46;24.90;99.90
3752;DHT22;50827;47.014;7.652;2023-06-22T14:51:13;24.80;99.90
3752;DHT22;50827;47.014;7.652;2023-06-22T14:53:46;24.80;99.90
3752;DHT22;50827;47.014;7.652;2023-06-22T14:56:13;24.70;99.90
3752;DHT22;50827;47.014;7.652;2023-06-22T14:58:43;24.60;99.90
3752;DHT22;50827;47.014;7.652;2023-06-22T15:01:12;24.40;99.90
3752;DHT22;50827;47.014;7.652;2023-06-22T15:03:39;24.20;99.90
3752;DHT22;50827;47.014;7.652;2023-06-22T15:06:06;24.00;99.90
3752;DHT22;50827;47.014;7.652;2023-06-22T15:08:34;23.90;99.90
3752;DHT22;50827;47.014;7.652;2023-06-22T15:11:00;23.80;99.90
3752;DHT22;50827;47.014;7.652;2023-06-22T15:13:30;23.60;99.90
3752;DHT22;50827;47.014;7.652;2023-06-22T15:16:03;23.50;99.90
3752;DHT22;50827;47.014;7.652;2023-06-22T15:18:31;23.50;99.90
3752;DHT22;50827;47.014;7.652;2023-06-22T15:21:00;23.50;99.90
3752;DHT22;50827;47.014;7.652;2023-06-22T15:23:31;23.50;99.90
3752;DHT22;50827;47.014;7.652;2023-06-22T15:25:59;23.60;99.90
3752;DHT22;50827;47.014;7.652;2023-06-22T15:28:27;23.70;99.90
3752;DHT22;50827;47.014;7.652;2023-06-22T15:30:54;23.70;99.90
3752;DHT22;50827;47.014;7.652;2023-06-22T15:33:21;23.70;99.90
3752;DHT22;50827;47.014;7.652;2023-06-22T15:35:48;23.70;99.90
3752;DHT22;50827;47.014;7.652;2023-06-22T15:38:14;23.70;99.90
3752;DHT22;50827;47.014;7.652;2023-06-22T15:40:41;23.60;99.90
3752;DHT22;50827;47.014;7.652;2023-06-22T15:43:11;23.50;99.90
3752;DHT22;50827;47.014;7.652;2023-06-22T15:45:40;23.50;99.90
3752;DHT22;50827;47.014;7.652;2023-06-22T15:48:07;23.50;99.90
3752;DHT22;50827;47.014;7.652;2023-06-22T15:50:34;23.50;99.90
3752;DHT22;50827;47.014;7.652;2023-06-22T15:53:00;23.40;99.90
3752;DHT22;50827;47.014;7.652;2023-06-22T15:55:27;23.40;99.90